createdAt,value
2018-05-26T07:15:38.204Z,20.70
2018-05-26T07:20:41.668Z,20.50
2018-05-26T07:25:45.281Z,20.70
2018-05-26T07:30:48.538Z,20.70
2018-05-26T07:35:51.775Z,21.00
2018-05-26T07:40:55.494Z,21.50
2018-05-26T07:45:59.205Z,21.40
2018-05-26T07:51:02.817Z,21.40
2018-05-26T07:56:06.623Z,21.50
2018-05-26T08:01:10.113Z,21.50
2018-05-26T08:06:13.348Z,21.90
2018-05-26T08:11:16.784Z,22.00
2018-05-26T08:16:20.009Z,21.90
2018-05-26T08:21:23.369Z,21.90
2018-05-26T08:26:26.998Z,21.50
2018-05-26T08:31:31.823Z,21.80
2018-05-26T08:36:35.110Z,21.80
2018-05-26T08:41:38.434Z,22.40
2018-05-26T08:46:41.721Z,22.60
2018-05-26T08:51:45.565Z,23.00
2018-05-26T08:56:49.304Z,23.00
2018-05-26T09:01:52.535Z,23.00
2018-05-26T09:06:55.770Z,23.40
2018-05-26T09:11:59.089Z,23.40
2018-05-26T09:17:02.741Z,23.30
2018-05-26T09:22:05.966Z,23.30
2018-05-26T09:27:09.179Z,23.50
2018-05-26T09:32:12.423Z,23.80
2018-05-26T09:37:16.136Z,23.80
2018-05-26T09:42:19.764Z,23.40
2018-05-26T09:47:22.998Z,23.40
2018-05-26T09:52:26.810Z,23.10
2018-05-26T09:57:30.159Z,23.30
2018-05-26T10:02:33.785Z,24.40
2018-05-26T10:07:37.492Z,24.70
2018-05-26T10:12:41.229Z,24.50
2018-05-26T10:17:44.523Z,24.50
2018-05-26T10:22:47.897Z,23.90
2018-05-26T10:27:51.142Z,24.00
2018-05-26T10:32:54.393Z,24.50
2018-05-26T10:37:58.328Z,24.70
2018-05-26T10:43:03.091Z,25.70
2018-05-26T10:48:06.589Z,25.60
2018-05-26T10:53:10.060Z,26.00
2018-05-26T10:58:13.291Z,26.20
2018-05-26T11:03:16.940Z,26.90
2018-05-26T11:08:20.165Z,26.90
2018-05-26T11:13:23.406Z,27.10
2018-05-26T11:18:26.712Z,27.30
2018-05-26T11:23:30.114Z,27.20
2018-05-26T11:28:33.363Z,27.20
2018-05-26T11:33:36.716Z,27.70
2018-05-26T11:38:40.461Z,27.40
2018-05-26T11:43:43.822Z,27.10
2018-05-26T11:48:47.637Z,27.70
2018-05-26T11:53:51.274Z,28.50
2018-05-26T11:58:54.579Z,28.50
2018-05-26T12:03:57.811Z,29.90
2018-05-26T12:09:01.185Z,30.50
2018-05-26T12:14:04.428Z,31.90
2018-05-26T12:19:07.662Z,33.40
2018-05-26T12:24:11.292Z,34.10
2018-05-26T12:29:14.529Z,34.10
2018-05-26T12:34:17.762Z,35.20
2018-05-26T12:39:21.005Z,35.70
2018-05-26T12:44:24.230Z,35.40
2018-05-26T12:49:27.476Z,35.10
2018-05-26T12:54:30.744Z,35.60
2018-05-26T12:59:34.003Z,36.40
2018-05-26T13:04:37.286Z,37.20
2018-05-26T13:09:40.978Z,37.10
2018-05-26T13:14:44.311Z,37.10
2018-05-26T13:19:47.934Z,36.60
2018-05-26T13:24:51.215Z,36.70
2018-05-26T13:29:54.862Z,37.30
2018-05-26T13:34:58.080Z,37.30
2018-05-26T13:40:01.310Z,37.60
2018-05-26T13:45:04.639Z,36.90
2018-05-26T13:50:08.274Z,36.70
2018-05-26T13:55:12.040Z,37.00
2018-05-26T14:00:15.553Z,37.00
2018-05-26T14:05:20.430Z,36.10
2018-05-26T14:10:23.718Z,33.80
2018-05-26T14:15:26.941Z,32.20
2018-05-26T14:20:30.306Z,31.30
2018-05-26T14:25:33.926Z,30.00
2018-05-26T14:30:37.553Z,29.60
2018-05-26T14:35:40.926Z,29.60
2018-05-26T14:40:44.536Z,29.30
2018-05-26T14:45:48.157Z,29.40
2018-05-26T14:50:51.780Z,29.70
2018-05-26T14:55:54.991Z,29.70
2018-05-26T15:00:58.252Z,29.70
2018-05-26T15:06:01.565Z,30.00
2018-05-26T15:11:05.222Z,30.30
2018-05-26T15:16:08.494Z,30.30
2018-05-26T15:21:11.711Z,30.90
2018-05-26T15:26:14.938Z,31.70
2018-05-26T15:31:18.237Z,31.30
2018-05-26T15:36:21.606Z,31.30
2018-05-26T15:41:24.903Z,31.10
2018-05-26T15:46:28.207Z,31.60
2018-05-26T15:51:31.445Z,32.70
2018-05-26T15:56:34.681Z,33.70
2018-05-26T16:01:38.311Z,31.10
2018-05-26T16:06:41.926Z,31.00
2018-05-26T16:11:45.143Z,31.00
2018-05-26T16:16:48.367Z,30.90
2018-05-26T16:21:51.610Z,30.80
2018-05-26T16:26:55.240Z,33.20
2018-05-26T16:31:58.462Z,33.20
2018-05-26T16:37:01.714Z,34.50
2018-05-26T16:42:05.366Z,34.60
2018-05-26T16:47:08.598Z,34.60
2018-05-26T16:52:11.812Z,35.60
2018-05-26T16:57:15.039Z,35.20
2018-05-26T17:02:18.719Z,35.20
2018-05-26T17:07:21.946Z,35.20
2018-05-26T17:12:25.256Z,35.50
2018-05-26T17:17:28.886Z,31.80
2018-05-26T17:22:32.165Z,31.80
2018-05-26T17:27:35.864Z,28.80
2018-05-26T17:32:39.478Z,28.40
2018-05-26T17:37:43.100Z,27.70
2018-05-26T17:42:46.797Z,27.10
2018-05-26T17:47:50.511Z,27.00
2018-05-26T17:52:54.237Z,27.00
2018-05-26T17:57:57.612Z,27.00
2018-05-26T18:03:02.277Z,26.60
2018-05-26T18:08:05.582Z,26.30
2018-05-26T18:13:08.853Z,26.10
2018-05-26T18:18:12.070Z,26.00
2018-05-26T18:23:15.814Z,25.60
2018-05-26T18:28:19.110Z,25.60
2018-05-26T18:33:22.351Z,25.40
2018-05-26T18:38:25.631Z,25.20
2018-05-26T18:43:28.869Z,24.90
2018-05-26T18:48:32.099Z,24.70
2018-05-26T18:53:36.442Z,24.30
2018-05-26T18:58:39.720Z,24.30
2018-05-26T19:03:43.354Z,23.90
2018-05-26T19:08:46.567Z,23.90
2018-05-26T19:13:50.130Z,23.70
2018-05-26T19:18:55.288Z,23.30
2018-05-26T19:23:58.506Z,23.30
2018-05-26T19:29:01.867Z,23.20
2018-05-26T19:34:05.823Z,23.00
2018-05-26T19:39:09.076Z,23.00
2018-05-26T19:44:12.404Z,22.80
2018-05-26T19:49:16.013Z,22.50
2018-05-26T19:54:19.643Z,22.30
2018-05-26T19:59:22.999Z,22.30
2018-05-26T20:04:26.227Z,22.30
2018-05-26T20:09:29.857Z,22.10
2018-05-26T20:14:33.162Z,22.10
2018-05-26T20:19:36.387Z,22.00
2018-05-26T20:24:39.608Z,22.00
2018-05-26T20:29:42.922Z,22.10
2018-05-26T20:34:46.293Z,22.10
2018-05-26T20:39:51.408Z,22.10
2018-05-26T20:44:55.138Z,22.00
2018-05-26T20:49:58.416Z,22.00
2018-05-26T20:55:03.140Z,21.90
2018-05-26T21:00:06.826Z,21.80
2018-05-26T21:05:10.555Z,21.80
2018-05-26T21:10:13.877Z,21.80
2018-05-26T21:15:17.533Z,21.70
2018-05-26T21:20:20.746Z,21.70
2018-05-26T21:25:23.981Z,21.60
2018-05-26T21:30:27.439Z,21.60
2018-05-26T21:35:30.836Z,21.50
2018-05-26T21:40:34.320Z,21.40
2018-05-26T21:45:37.807Z,21.30
2018-05-26T21:50:41.042Z,21.20
2018-05-26T21:55:44.405Z,21.10
2018-05-26T22:00:48.221Z,20.80
2018-05-26T22:05:51.981Z,20.60
2018-05-26T22:10:55.233Z,20.60
2018-05-26T22:15:58.919Z,20.40
2018-05-26T22:21:02.227Z,20.40
2018-05-26T22:26:05.878Z,20.30
2018-05-26T22:31:09.500Z,20.30
2018-05-26T22:36:12.755Z,20.30
2018-05-26T22:41:16.015Z,20.30
2018-05-26T22:46:19.374Z,20.30
2018-05-26T22:51:23.061Z,20.20
2018-05-26T22:56:26.318Z,20.20
2018-05-26T23:01:29.556Z,20.00
2018-05-26T23:06:33.410Z,19.90
2018-05-26T23:11:37.056Z,19.90
2018-05-26T23:16:40.296Z,19.90
2018-05-26T23:21:43.642Z,19.90
2018-05-26T23:26:46.896Z,19.90
2018-05-26T23:31:50.124Z,20.00
2018-05-26T23:36:53.754Z,19.80
2018-05-26T23:41:56.957Z,19.80
2018-05-26T23:47:00.169Z,19.40
2018-05-26T23:52:03.421Z,19.40
2018-05-26T23:57:06.666Z,19.40
